Time;durP1;ratioP1;P1;durP2;ratioP2;P2;SDS_P1;SDS_P2;PMS_P1;PMS_P2;Temp;Humidity;BMP_temperature;BMP_pressure;BME280_temperature;BME280_humidity;BME280_pressure;Samples;Min_cycle;Max_cycle;Signal;HPM_P1;HPM_P2
2023/11/07 00:01:37;;;;;;;2.65;1.63;;;8.50;96.60;;;;;;4982974;28;20061;-68
2023/11/07 00:04:03;;;;;;;5.68;2.08;;;8.40;96.90;;;;;;4991165;28;20105;-68
2023/11/07 00:06:28;;;;;;;3.53;1.70;;;8.30;96.90;;;;;;4986308;28;20109;-68
2023/11/07 00:08:54;;;;;;;2.90;1.67;;;8.40;97.10;;;;;;4980809;28;20054;-71
2023/11/07 00:11:19;;;;;;;3.05;1.75;;;8.50;96.90;;;;;;4986242;28;20041;-70
2023/11/07 00:13:47;;;;;;;3.92;1.27;;;8.40;96.90;;;;;;4989222;28;20034;-68
2023/11/07 00:16:13;;;;;;;3.33;1.80;;;8.50;96.80;;;;;;4988379;28;20364;-68
2023/11/07 00:18:40;;;;;;;3.33;1.70;;;8.60;96.70;;;;;;4987781;28;20045;-68
2023/11/07 00:21:06;;;;;;;2.60;1.77;;;8.70;96.50;;;;;;4989574;28;20851;-68
2023/11/07 00:23:31;;;;;;;2.33;1.65;;;8.70;96.40;;;;;;4992932;28;20034;-68
2023/11/07 00:25:57;;;;;;;4.63;2.35;;;8.80;96.40;;;;;;4980877;28;20043;-68
2023/11/07 00:28:22;;;;;;;3.85;1.90;;;8.80;96.40;;;;;;4980040;28;20093;-68
2023/11/07 00:30:48;;;;;;;4.70;1.90;;;8.80;96.20;;;;;;4978427;28;20065;-68
2023/11/07 00:33:13;;;;;;;3.28;2.03;;;8.80;96.40;;;;;;4981839;28;20028;-69
2023/11/07 00:35:41;;;;;;;3.88;2.38;;;8.90;96.30;;;;;;4986365;28;20038;-70
2023/11/07 00:38:06;;;;;;;3.08;1.80;;;8.90;96.30;;;;;;4984871;28;20034;-68
2023/11/07 00:40:32;;;;;;;4.93;2.17;;;8.90;96.30;;;;;;4985716;28;20065;-68
2023/11/07 00:42:57;;;;;;;3.97;2.08;;;8.90;96.20;;;;;;4986104;28;20042;-68
2023/11/07 00:45:23;;;;;;;2.90;1.65;;;9.00;96.10;;;;;;4985345;28;20479;-68
2023/11/07 00:47:50;;;;;;;3.13;1.63;;;9.00;96.20;;;;;;4987161;28;20060;-67
2023/11/07 00:50:15;;;;;;;2.80;1.50;;;9.00;96.30;;;;;;4977357;28;20106;-70
2023/11/07 00:52:41;;;;;;;4.55;2.13;;;9.00;96.30;;;;;;4977966;28;20109;-68
2023/11/07 00:55:07;;;;;;;4.28;1.92;;;9.00;96.30;;;;;;4985549;28;20341;-70
2023/11/07 00:57:32;;;;;;;5.05;2.45;;;9.00;96.40;;;;;;4988870;28;20498;-71
2023/11/07 00:59:58;;;;;;;4.63;2.40;;;9.00;96.30;;;;;;4988441;28;20040;-68
2023/11/07 01:02:24;;;;;;;3.67;1.75;;;9.00;96.30;;;;;;4985283;28;20066;-69
2023/11/07 01:04:49;;;;;;;5.45;2.35;;;9.00;96.30;;;;;;4984790;28;20069;-67
2023/11/07 01:07:15;;;;;;;3.63;2.03;;;9.00;96.10;;;;;;4983002;28;20483;-69
2023/11/07 01:09:41;;;;;;;2.25;1.70;;;9.00;96.20;;;;;;4988949;28;20069;-68
2023/11/07 01:12:08;;;;;;;5.10;2.10;;;9.00;96.20;;;;;;4982895;28;20039;-68
2023/11/07 01:14:34;;;;;;;5.75;2.30;;;9.00;96.20;;;;;;4976153;28;20351;-69
2023/11/07 01:17:00;;;;;;;3.08;1.63;;;9.00;96.20;;;;;;4984043;28;20491;-68
2023/11/07 01:19:26;;;;;;;3.28;2.05;;;9.00;96.10;;;;;;4981074;28;20033;-69
2023/11/07 01:21:52;;;;;;;6.05;2.17;;;9.10;96.00;;;;;;4986553;28;20093;-68
2023/11/07 01:24:17;;;;;;;2.78;1.70;;;9.10;95.90;;;;;;4977784;28;20668;-68
2023/11/07 01:26:43;;;;;;;3.03;1.52;;;9.10;96.00;;;;;;4978275;28;20054;-69
2023/11/07 01:29:08;;;;;;;3.42;1.70;;;9.10;96.00;;;;;;4980978;28;20117;-68
2023/11/07 01:31:34;;;;;;;3.50;1.75;;;9.10;95.80;;;;;;4978390;28;20042;-68
2023/11/07 01:33:59;;;;;;;3.30;1.73;;;9.10;95.80;;;;;;4983011;28;20041;-69
2023/11/07 01:36:25;;;;;;;3.47;1.52;;;9.10;95.80;;;;;;4986767;28;20427;-68
2023/11/07 01:38:50;;;;;;;3.88;2.22;;;9.10;95.90;;;;;;4980066;28;20041;-68
2023/11/07 01:41:16;;;;;;;5.20;1.92;;;9.10;95.70;;;;;;4978534;28;20547;-70
2023/11/07 01:43:41;;;;;;;5.00;1.95;;;9.10;95.80;;;;;;4987671;28;20038;-68
2023/11/07 01:46:08;;;;;;;4.90;1.88;;;9.10;95.80;;;;;;4984095;28;20398;-68
2023/11/07 01:48:34;;;;;;;3.15;1.80;;;9.10;95.60;;;;;;4985311;28;20047;-68
2023/11/07 01:51:01;;;;;;;4.55;2.20;;;9.10;95.50;;;;;;4984158;28;20046;-68
2023/11/07 01:53:28;;;;;;;5.05;1.98;;;9.10;95.30;;;;;;4984217;28;20042;-68
2023/11/07 01:55:55;;;;;;;3.35;1.85;;;9.10;95.50;;;;;;4981742;28;20047;-68
2023/11/07 01:58:21;;;;;;;3.45;1.75;;;9.10;95.50;;;;;;4982100;28;20041;-67
2023/11/07 02:00:48;;;;;;;3.30;2.08;;;9.10;95.50;;;;;;4983689;28;20164;-68
2023/11/07 02:03:14;;;;;;;3.55;1.52;;;9.10;95.40;;;;;;4999871;28;20042;-69
2023/11/07 02:05:41;;;;;;;2.70;1.83;;;9.10;95.60;;;;;;4985700;28;20053;-69
2023/11/07 02:08:07;;;;;;;5.70;2.22;;;9.10;95.50;;;;;;4980014;28;20034;-67
2023/11/07 02:10:33;;;;;;;3.58;1.65;;;9.10;95.40;;;;;;4980727;28;20490;-68
2023/11/07 02:12:59;;;;;;;2.08;1.63;;;9.00;95.50;;;;;;4985163;28;20030;-68
2023/11/07 02:15:34;;;;;;;1.85;1.58;;;9.00;95.60;;;;;;4982684;28;20127;-68
2023/11/07 02:18:00;;;;;;;6.70;1.63;;;9.00;95.60;;;;;;4986549;28;20042;-68
2023/11/07 02:20:26;;;;;;;3.75;2.08;;;9.00;95.60;;;;;;4983616;28;20037;-68
2023/11/07 02:23:06;;;;;;;4.05;2.38;;;9.00;95.60;;;;;;4982120;28;20027;-68
2023/11/07 02:25:32;;;;;;;2.88;1.80;;;9.00;95.60;;;;;;4985246;28;20169;-68
2023/11/07 02:27:58;;;;;;;2.35;1.42;;;9.10;95.40;;;;;;4978561;28;20106;-68
2023/11/07 02:30:25;;;;;;;3.30;1.98;;;9.00;95.40;;;;;;4978565;28;20038;-68
2023/11/07 02:32:50;;;;;;;3.50;1.42;;;9.10;95.30;;;;;;4985809;28;20030;-68
2023/11/07 02:35:16;;;;;;;4.70;2.03;;;9.10;95.40;;;;;;4985643;28;20026;-70
2023/11/07 02:37:45;;;;;;;3.63;2.03;;;9.10;95.30;;;;;;4987001;28;20060;-69
2023/11/07 02:40:11;;;;;;;3.00;1.98;;;9.10;95.20;;;;;;4982671;28;20137;-68
2023/11/07 02:42:37;;;;;;;4.85;1.50;;;9.10;94.90;;;;;;4981047;28;20601;-69
2023/11/07 02:45:03;;;;;;;4.15;2.05;;;9.10;95.00;;;;;;4981139;28;20038;-71
2023/11/07 02:47:29;;;;;;;4.15;2.30;;;9.10;95.00;;;;;;4977470;28;20506;-69
2023/11/07 02:49:55;;;;;;;3.75;2.08;;;9.10;95.00;;;;;;4981419;28;20050;-68
2023/11/07 02:52:20;;;;;;;3.40;2.17;;;9.10;94.90;;;;;;4990887;28;20035;-68
2023/11/07 02:54:46;;;;;;;4.55;2.25;;;9.10;95.00;;;;;;4989637;28;20057;-69
2023/11/07 02:57:12;;;;;;;3.63;1.75;;;9.10;95.10;;;;;;4984175;28;20143;-69
2023/11/07 02:59:39;;;;;;;5.72;2.60;;;9.10;95.20;;;;;;4993490;28;20038;-68
2023/11/07 03:02:04;;;;;;;3.70;1.70;;;9.10;95.20;;;;;;4983360;28;21534;-68
2023/11/07 03:04:30;;;;;;;5.20;2.20;;;9.10;95.10;;;;;;4991394;28;20038;-68
2023/11/07 03:06:55;;;;;;;4.63;2.15;;;9.00;95.20;;;;;;4983217;28;20065;-71
2023/11/07 03:09:21;;;;;;;4.72;2.35;;;9.00;95.30;;;;;;4984080;28;20069;-69
2023/11/07 03:11:46;;;;;;;3.60;2.00;;;9.00;95.30;;;;;;4984868;28;20081;-72
2023/11/07 03:14:12;;;;;;;5.53;2.35;;;9.00;95.40;;;;;;4986041;28;20030;-69
2023/11/07 03:16:38;;;;;;;5.78;2.50;;;9.00;95.40;;;;;;4985489;28;20439;-68
2023/11/07 03:19:07;;;;;;;4.95;2.17;;;9.00;95.30;;;;;;4990850;28;20440;-68
2023/11/07 03:21:36;;;;;;;4.15;2.53;;;9.00;95.40;;;;;;4985922;28;20528;-68
2023/11/07 03:24:03;;;;;;;6.25;2.47;;;9.00;95.40;;;;;;4985678;28;20026;-68
2023/11/07 03:26:29;;;;;;;3.92;2.53;;;9.10;95.30;;;;;;4985613;28;20054;-71
2023/11/07 03:28:54;;;;;;;4.28;2.38;;;9.00;95.50;;;;;;4990156;28;20041;-68
2023/11/07 03:31:20;;;;;;;3.42;2.55;;;9.10;95.50;;;;;;4981814;28;20569;-68
2023/11/07 03:33:46;;;;;;;5.10;2.50;;;9.10;95.40;;;;;;4985487;28;20061;-69
2023/11/07 03:36:14;;;;;;;5.10;2.53;;;9.10;95.30;;;;;;4990838;28;20072;-68
2023/11/07 03:38:40;;;;;;;5.03;2.65;;;9.10;95.10;;;;;;4989739;28;20034;-68
2023/11/07 03:41:06;;;;;;;4.35;2.17;;;9.10;95.20;;;;;;4983999;28;20031;-70
2023/11/07 03:43:33;;;;;;;4.70;2.50;;;9.10;95.30;;;;;;4984285;28;20074;-68
2023/11/07 03:45:59;;;;;;;2.70;2.08;;;9.10;95.30;;;;;;4990462;28;20113;-69
2023/11/07 03:48:24;;;;;;;5.70;2.63;;;9.10;95.30;;;;;;4983871;28;20060;-68
2023/11/07 03:50:53;;;;;;;6.35;3.05;;;9.10;95.50;;;;;;4988320;28;20534;-68
2023/11/07 03:53:21;;;;;;;5.07;2.80;;;9.00;96.20;;;;;;4983985;28;20027;-68
2023/11/07 03:55:47;;;;;;;5.85;2.60;;;8.90;96.60;;;;;;4984228;28;20430;-68
2023/11/07 03:58:12;;;;;;;5.70;2.83;;;8.80;97.00;;;;;;4981027;28;20060;-68
2023/11/07 04:00:40;;;;;;;5.65;2.60;;;8.80;97.30;;;;;;4983384;28;20049;-68
2023/11/07 04:03:06;;;;;;;5.40;2.67;;;8.70;97.40;;;;;;4982976;28;20119;-69
2023/11/07 04:05:31;;;;;;;5.50;2.63;;;8.70;97.50;;;;;;4983404;28;20118;-68
2023/11/07 04:07:57;;;;;;;4.22;2.25;;;8.70;97.60;;;;;;4986876;28;20026;-69
2023/11/07 04:10:23;;;;;;;6.10;3.08;;;8.70;97.70;;;;;;4987109;28;20383;-68
2023/11/07 04:12:49;;;;;;;5.13;2.85;;;8.70;97.70;;;;;;4988185;28;20026;-69
2023/11/07 04:15:14;;;;;;;5.00;2.80;;;8.70;97.50;;;;;;4980803;28;20046;-69
2023/11/07 04:17:40;;;;;;;6.10;2.78;;;8.70;97.50;;;;;;4989991;28;20046;-68
2023/11/07 04:20:09;;;;;;;5.35;3.13;;;8.70;97.30;;;;;;4986705;28;20045;-70
2023/11/07 04:22:35;;;;;;;5.05;2.58;;;8.70;97.30;;;;;;4985874;28;20060;-68
2023/11/07 04:25:01;;;;;;;4.75;2.40;;;8.70;97.20;;;;;;4986133;28;20023;-69
2023/11/07 04:27:27;;;;;;;3.33;2.50;;;8.80;97.30;;;;;;4986853;28;20061;-70
2023/11/07 04:29:52;;;;;;;6.72;3.38;;;8.80;97.20;;;;;;4985832;28;20049;-69
2023/11/07 04:32:18;;;;;;;5.10;2.70;;;8.80;97.20;;;;;;4987386;28;20387;-69
2023/11/07 04:34:44;;;;;;;4.68;2.80;;;8.80;97.00;;;;;;4984939;28;20026;-69
2023/11/07 04:37:09;;;;;;;5.30;2.70;;;8.80;97.00;;;;;;4988295;28;20042;-68
2023/11/07 04:39:35;;;;;;;6.50;2.90;;;8.80;97.00;;;;;;4986696;28;20397;-69
2023/11/07 04:42:01;;;;;;;5.43;2.97;;;8.90;96.70;;;;;;4981984;28;20609;-68
2023/11/07 04:44:27;;;;;;;7.00;3.45;;;8.90;96.70;;;;;;4979659;28;20088;-68
2023/11/07 04:46:53;;;;;;;7.25;3.47;;;8.90;96.70;;;;;;4979893;28;20085;-69
2023/11/07 04:49:18;;;;;;;6.28;2.88;;;8.90;96.70;;;;;;4981936;28;20034;-69
2023/11/07 04:51:44;;;;;;;8.20;3.35;;;9.00;96.50;;;;;;4978873;28;20124;-67
2023/11/07 04:54:09;;;;;;;5.22;2.92;;;8.90;96.70;;;;;;4982810;28;20034;-68
2023/11/07 04:56:35;;;;;;;5.03;2.90;;;9.00;96.70;;;;;;4986104;28;20034;-68
2023/11/07 04:59:00;;;;;;;4.10;2.35;;;9.00;96.50;;;;;;4980844;28;20026;-68
2023/11/07 05:01:26;;;;;;;6.60;2.67;;;9.00;96.60;;;;;;4985102;28;20030;-69
2023/11/07 05:03:53;;;;;;;6.45;3.20;;;9.00;96.40;;;;;;4986459;28;20093;-68
2023/11/07 05:06:19;;;;;;;4.97;3.05;;;9.00;96.40;;;;;;4977750;28;20541;-69
2023/11/07 05:08:45;;;;;;;3.95;2.28;;;9.10;96.30;;;;;;4983867;28;20034;-69
2023/11/07 05:11:12;;;;;;;5.40;2.40;;;9.10;96.20;;;;;;4983704;28;20482;-68
2023/11/07 05:13:38;;;;;;;3.65;2.55;;;9.10;96.20;;;;;;4983091;28;21119;-69
2023/11/07 05:16:04;;;;;;;5.35;2.65;;;9.10;96.30;;;;;;4980498;28;20030;-68
2023/11/07 05:18:30;;;;;;;4.75;2.38;;;9.10;96.00;;;;;;4987114;28;20037;-70
2023/11/07 05:20:56;;;;;;;3.88;2.35;;;9.10;96.10;;;;;;4978765;28;20034;-69
2023/11/07 05:23:22;;;;;;;5.35;2.35;;;9.20;95.90;;;;;;4992447;28;20038;-68
2023/11/07 05:25:48;;;;;;;5.88;2.40;;;9.10;96.00;;;;;;4982413;28;20129;-68
2023/11/07 05:28:13;;;;;;;3.65;2.38;;;9.10;95.90;;;;;;4983203;28;20121;-67
2023/11/07 05:30:39;;;;;;;5.25;2.22;;;9.10;95.90;;;;;;4981318;28;20041;-67
2023/11/07 05:33:05;;;;;;;5.65;2.97;;;9.10;95.90;;;;;;4984911;28;20113;-66
2023/11/07 05:35:31;;;;;;;3.97;2.40;;;9.10;95.70;;;;;;4985950;28;20027;-67
2023/11/07 05:37:56;;;;;;;3.83;2.50;;;9.20;95.80;;;;;;4983310;28;20045;-67
2023/11/07 05:40:23;;;;;;;4.43;2.50;;;9.20;95.80;;;;;;4983444;28;20502;-66
2023/11/07 05:42:51;;;;;;;4.40;2.63;;;9.20;95.80;;;;;;4980301;28;20463;-68
2023/11/07 05:45:17;;;;;;;4.40;2.35;;;9.10;95.90;;;;;;4981696;28;20044;-67
2023/11/07 05:47:42;;;;;;;3.80;2.60;;;9.20;95.60;;;;;;4984654;28;20391;-65
2023/11/07 05:50:10;;;;;;;4.05;2.28;;;9.20;95.50;;;;;;4986004;28;20039;-65
2023/11/07 05:52:35;;;;;;;4.68;2.60;;;9.20;95.60;;;;;;4981344;28;20030;-67
2023/11/07 05:55:06;;;;;;;5.00;2.90;;;9.20;95.50;;;;;;4984164;28;20538;-65
2023/11/07 05:57:32;;;;;;;5.72;3.05;;;9.20;95.40;;;;;;4988194;28;20384;-65
2023/11/07 05:59:58;;;;;;;4.50;2.63;;;9.30;95.50;;;;;;4986915;28;20041;-66
2023/11/07 06:02:24;;;;;;;4.88;2.30;;;9.20;95.60;;;;;;4983217;28;20065;-67
2023/11/07 06:04:52;;;;;;;5.15;2.50;;;9.20;95.70;;;;;;4983044;28;20030;-67
2023/11/07 06:07:18;;;;;;;4.68;2.95;;;9.20;95.50;;;;;;4984459;28;20250;-67
2023/11/07 06:09:43;;;;;;;4.55;2.35;;;9.30;95.60;;;;;;4976402;28;20047;-67
2023/11/07 06:12:10;;;;;;;3.03;2.03;;;9.30;95.60;;;;;;4984198;28;20432;-66
2023/11/07 06:14:36;;;;;;;4.13;2.28;;;9.20;95.70;;;;;;4977758;28;20035;-67
2023/11/07 06:17:01;;;;;;;6.85;2.72;;;9.20;95.80;;;;;;4972187;28;20073;-67
2023/11/07 06:19:27;;;;;;;4.43;2.50;;;9.20;95.60;;;;;;4987232;28;20045;-66
2023/11/07 06:21:53;;;;;;;6.60;2.60;;;9.20;95.70;;;;;;4986215;28;20073;-68
2023/11/07 06:24:21;;;;;;;4.55;2.35;;;9.30;95.60;;;;;;4980993;28;20035;-70
2023/11/07 06:26:47;;;;;;;4.35;2.50;;;9.30;95.60;;;;;;4983027;28;20062;-67
2023/11/07 06:29:13;;;;;;;3.10;2.22;;;9.20;95.50;;;;;;4988445;28;20050;-67
2023/11/07 06:31:39;;;;;;;6.75;2.70;;;9.30;95.60;;;;;;4985421;28;20043;-66
2023/11/07 06:34:05;;;;;;;4.57;2.45;;;9.30;95.50;;;;;;4993737;28;20113;-67
2023/11/07 06:36:31;;;;;;;3.88;2.25;;;9.30;95.50;;;;;;4994470;28;20114;-67
2023/11/07 06:38:57;;;;;;;3.08;2.13;;;9.30;95.50;;;;;;4989018;28;20050;-66
2023/11/07 06:41:22;;;;;;;4.35;2.53;;;9.30;95.50;;;;;;4991147;28;20035;-66
2023/11/07 06:43:48;;;;;;;4.45;2.45;;;9.30;95.60;;;;;;4990845;28;20034;-67
2023/11/07 06:46:15;;;;;;;4.75;2.72;;;9.30;95.50;;;;;;4991419;28;20030;-68
2023/11/07 06:48:43;;;;;;;6.97;2.92;;;9.30;95.60;;;;;;4993255;28;20034;-66
2023/11/07 06:51:10;;;;;;;4.70;2.33;;;9.30;95.50;;;;;;4990229;28;20030;-70
2023/11/07 06:53:36;;;;;;;6.50;2.63;;;9.30;95.60;;;;;;4990610;28;20139;-68
2023/11/07 06:56:01;;;;;;;5.72;2.60;;;9.30;95.60;;;;;;4985238;28;20499;-66
2023/11/07 06:58:27;;;;;;;4.85;2.63;;;9.30;95.50;;;;;;4992461;28;20037;-67
2023/11/07 07:00:54;;;;;;;2.58;2.03;;;9.30;95.50;;;;;;4988812;28;20041;-67
2023/11/07 07:03:20;;;;;;;3.67;2.05;;;9.30;95.50;;;;;;4987973;28;20076;-65
2023/11/07 07:05:46;;;;;;;4.07;2.55;;;9.30;95.50;;;;;;4992304;28;20136;-68
2023/11/07 07:08:11;;;;;;;5.72;2.42;;;9.30;95.50;;;;;;4981933;28;20457;-69
2023/11/07 07:10:38;;;;;;;4.15;2.63;;;9.30;95.50;;;;;;4986798;28;20060;-66
2023/11/07 07:13:03;;;;;;;4.53;2.70;;;9.40;95.20;;;;;;4985393;28;20026;-65
2023/11/07 07:15:29;;;;;;;3.60;2.10;;;9.40;95.20;;;;;;4995312;28;20390;-67
2023/11/07 07:17:54;;;;;;;4.80;2.45;;;9.40;95.30;;;;;;4990434;28;20038;-64
2023/11/07 07:20:20;;;;;;;5.25;2.88;;;9.40;95.30;;;;;;4991476;28;20033;-65
2023/11/07 07:22:46;;;;;;;3.92;2.60;;;9.40;95.00;;;;;;4989753;28;20037;-66
2023/11/07 07:25:20;;;;;;;5.78;2.85;;;9.50;95.00;;;;;;4992795;28;20049;-65
2023/11/07 07:27:47;;;;;;;4.35;2.15;;;9.50;95.10;;;;;;4984467;28;20398;-66
2023/11/07 07:30:26;;;;;;;4.50;2.85;;;9.50;95.20;;;;;;4991592;28;20081;-66
2023/11/07 07:32:51;;;;;;;5.10;2.70;;;9.50;94.90;;;;;;4991329;28;20101;-65
2023/11/07 07:35:20;;;;;;;3.60;2.70;;;9.50;95.00;;;;;;4991877;28;20168;-69
2023/11/07 07:37:51;;;;;;;6.47;2.28;;;9.50;95.10;;;;;;4986665;28;20039;-66
2023/11/07 07:40:29;;;;;;;3.25;1.83;;;9.50;95.00;;;;;;4988639;28;20037;-65
2023/11/07 07:42:58;;;;;;;3.17;2.03;;;9.50;95.00;;;;;;4986710;28;20038;-65
2023/11/07 07:45:23;;;;;;;3.67;2.35;;;9.60;94.80;;;;;;4992217;28;20122;-65
2023/11/07 07:47:49;;;;;;;5.25;2.80;;;9.60;94.80;;;;;;4991391;28;20712;-65
2023/11/07 07:50:15;;;;;;;4.35;2.55;;;9.60;94.70;;;;;;4993171;28;20033;-68
2023/11/07 07:52:43;;;;;;;3.67;2.50;;;9.70;94.50;;;;;;4989891;28;20395;-66
2023/11/07 07:55:12;;;;;;;3.90;2.30;;;9.70;94.70;;;;;;4988933;28;20049;-64
2023/11/07 07:57:38;;;;;;;4.57;2.53;;;9.70;94.30;;;;;;4989008;28;20479;-66
2023/11/07 08:00:18;;;;;;;5.05;2.10;;;9.70;94.40;;;;;;4990833;28;20029;-66
2023/11/07 08:02:46;;;;;;;4.35;2.08;;;9.80;94.10;;;;;;4991482;28;20100;-66
2023/11/07 08:05:17;;;;;;;4.40;2.28;;;9.80;94.00;;;;;;4990360;28;20393;-66
2023/11/07 08:07:47;;;;;;;3.75;2.13;;;9.90;94.10;;;;;;4992052;28;20101;-65
2023/11/07 08:10:22;;;;;;;4.60;2.13;;;10.00;93.80;;;;;;4992289;28;20042;-66
2023/11/07 08:12:50;;;;;;;3.28;2.10;;;10.10;93.70;;;;;;4988939;28;20034;-68
2023/11/07 08:15:16;;;;;;;4.90;2.13;;;10.10;93.20;;;;;;4991081;28;20030;-66
2023/11/07 08:17:42;;;;;;;3.85;1.85;;;10.10;93.30;;;;;;4990984;28;20022;-65
2023/11/07 08:20:14;;;;;;;2.40;1.63;;;10.10;93.60;;;;;;4988986;28;20117;-69
2023/11/07 08:22:43;;;;;;;4.07;1.98;;;10.00;93.20;;;;;;4995687;28;20030;-64
2023/11/07 08:25:13;;;;;;;2.90;2.00;;;10.10;92.90;;;;;;4988371;28;20042;-65
2023/11/07 08:27:42;;;;;;;2.22;1.60;;;10.10;93.30;;;;;;4986062;28;20050;-66
2023/11/07 08:30:15;;;;;;;2.53;1.65;;;10.10;93.30;;;;;;4989601;28;20042;-65
2023/11/07 08:32:44;;;;;;;4.70;1.95;;;10.10;92.80;;;;;;4987797;28;20059;-65
2023/11/07 08:35:11;;;;;;;3.05;1.90;;;10.10;93.20;;;;;;4984966;28;20117;-65
2023/11/07 08:37:38;;;;;;;2.58;1.58;;;10.20;92.90;;;;;;4986355;28;20054;-66
2023/11/07 08:40:06;;;;;;;3.10;1.60;;;10.20;92.80;;;;;;4991259;28;20391;-67
2023/11/07 08:42:31;;;;;;;4.97;2.08;;;10.30;92.50;;;;;;4987864;28;20033;-65
2023/11/07 08:44:57;;;;;;;3.45;1.90;;;10.30;92.30;;;;;;4982280;28;20034;-65
2023/11/07 08:47:23;;;;;;;2.53;1.48;;;10.30;92.00;;;;;;4986981;28;20425;-65
2023/11/07 08:49:48;;;;;;;4.03;1.95;;;10.30;92.20;;;;;;4988458;28;20030;-67
2023/11/07 08:52:14;;;;;;;2.47;1.45;;;10.30;92.40;;;;;;4990055;28;20044;-69
2023/11/07 08:54:41;;;;;;;2.15;1.42;;;10.30;92.60;;;;;;4990749;28;20019;-65
2023/11/07 08:57:06;;;;;;;3.35;1.60;;;10.30;92.00;;;;;;4991460;28;20038;-65
2023/11/07 08:59:32;;;;;;;3.83;1.75;;;10.30;92.40;;;;;;4985782;28;20045;-65
2023/11/07 09:01:57;;;;;;;3.10;1.88;;;10.30;92.00;;;;;;4988052;28;20451;-65
2023/11/07 09:04:23;;;;;;;2.55;1.25;;;10.40;91.90;;;;;;4990454;28;20407;-67
2023/11/07 09:06:48;;;;;;;3.95;1.88;;;10.30;92.10;;;;;;4987042;28;20026;-67
2023/11/07 09:09:17;;;;;;;2.97;1.77;;;10.40;92.00;;;;;;4987703;28;20118;-65
2023/11/07 09:11:43;;;;;;;4.38;1.70;;;10.50;91.50;;;;;;4986049;28;20042;-65
2023/11/07 09:14:09;;;;;;;1.40;1.30;;;10.40;91.20;;;;;;4989812;28;20034;-65
2023/11/07 09:16:34;;;;;;;3.92;1.20;;;10.50;91.70;;;;;;4987548;28;20489;-65
2023/11/07 09:19:00;;;;;;;2.20;1.70;;;10.50;92.00;;;;;;4990199;28;20038;-65
2023/11/07 09:21:26;;;;;;;3.10;1.70;;;10.50;91.40;;;;;;4990158;28;20387;-66
2023/11/07 09:23:53;;;;;;;3.88;2.03;;;10.50;91.40;;;;;;4986199;28;20027;-66
2023/11/07 09:26:19;;;;;;;3.45;1.98;;;10.50;91.60;;;;;;4986519;28;20082;-67
2023/11/07 09:28:44;;;;;;;1.92;1.50;;;10.60;91.40;;;;;;4988651;28;20454;-65
2023/11/07 09:31:12;;;;;;;3.72;1.80;;;10.80;91.40;;;;;;4987378;28;20049;-65
2023/11/07 09:33:37;;;;;;;5.50;1.88;;;10.90;90.50;;;;;;4986183;28;20038;-66
2023/11/07 09:36:03;;;;;;;2.10;1.60;;;10.80;90.30;;;;;;4983930;28;20026;-64
2023/11/07 09:38:29;;;;;;;2.15;1.55;;;10.70;90.50;;;;;;4985850;28;20035;-65
2023/11/07 09:40:54;;;;;;;4.63;1.80;;;10.80;90.90;;;;;;4979794;28;20049;-65
2023/11/07 09:43:26;;;;;;;2.92;1.38;;;10.70;90.80;;;;;;4983858;28;20022;-65
2023/11/07 09:45:55;;;;;;;3.05;1.75;;;10.80;90.80;;;;;;4984526;28;20388;-64
2023/11/07 09:48:22;;;;;;;4.45;1.38;;;10.70;90.40;;;;;;4982664;28;20034;-67
2023/11/07 09:50:51;;;;;;;4.22;1.73;;;10.80;90.90;;;;;;4986453;28;20034;-65
2023/11/07 09:53:18;;;;;;;2.38;1.48;;;10.90;90.80;;;;;;4989766;28;20518;-65
2023/11/07 09:55:44;;;;;;;3.97;2.00;;;10.90;90.40;;;;;;4991384;28;20065;-65
2023/11/07 09:58:19;;;;;;;3.03;1.58;;;11.00;90.80;;;;;;4988069;28;20065;-65
2023/11/07 10:00:45;;;;;;;2.03;1.42;;;11.00;90.90;;;;;;4992659;28;20035;-66
2023/11/07 10:03:11;;;;;;;3.03;1.63;;;11.00;90.40;;;;;;4991920;28;20042;-65
2023/11/07 10:05:39;;;;;;;2.40;1.42;;;11.20;90.40;;;;;;4994742;28;20061;-65
2023/11/07 10:08:06;;;;;;;2.10;1.40;;;11.30;90.90;;;;;;4995008;28;20030;-65
2023/11/07 10:10:33;;;;;;;2.63;1.58;;;11.30;90.80;;;;;;4985550;28;20535;-65
2023/11/07 10:13:10;;;;;;;1.92;1.27;;;11.30;90.70;;;;;;4990738;28;20034;-65
2023/11/07 10:15:36;;;;;;;1.73;1.27;;;11.30;90.60;;;;;;4991252;28;20088;-67
2023/11/07 10:18:08;;;;;;;3.10;1.60;;;11.20;90.60;;;;;;4994591;28;20526;-65
2023/11/07 10:20:50;;;;;;;1.90;1.27;;;11.20;90.60;;;;;;4990097;28;20022;-68
2023/11/07 10:23:17;;;;;;;1.65;1.27;;;11.20;90.10;;;;;;4993372;28;20034;-66
2023/11/07 10:25:49;;;;;;;1.95;1.10;;;11.30;89.80;;;;;;4993291;28;20030;-65
2023/11/07 10:28:15;;;;;;;2.22;1.30;;;11.40;89.80;;;;;;4985004;28;20410;-65
2023/11/07 10:30:48;;;;;;;3.80;1.27;;;11.50;89.70;;;;;;4984009;28;20027;-65
2023/11/07 10:33:25;;;;;;;2.45;1.10;;;11.60;89.00;;;;;;4991862;28;20114;-65
2023/11/07 10:36:00;;;;;;;3.20;1.10;;;11.80;89.20;;;;;;4989920;28;20050;-65
2023/11/07 10:38:26;;;;;;;0.88;0.68;;;11.80;87.30;;;;;;4994108;28;20039;-67
2023/11/07 10:40:52;;;;;;;1.23;0.77;;;12.10;87.70;;;;;;4993912;28;20113;-66
2023/11/07 10:43:37;;;;;;;0.98;0.90;;;12.20;86.70;;;;;;4988156;28;20124;-65
2023/11/07 10:46:05;;;;;;;1.13;0.65;;;12.60;85.50;;;;;;4990932;28;20026;-65
2023/11/07 10:48:33;;;;;;;0.90;0.60;;;12.50;85.50;;;;;;4992971;28;20034;-65
2023/11/07 10:51:04;;;;;;;1.42;0.90;;;12.60;86.00;;;;;;4989600;28;20077;-65
2023/11/07 10:53:33;;;;;;;0.93;0.70;;;12.30;86.10;;;;;;4993020;28;20157;-65
2023/11/07 10:56:00;;;;;;;1.02;0.57;;;12.20;85.60;;;;;;4990042;28;20034;-65
2023/11/07 10:58:32;;;;;;;1.70;0.70;;;12.10;86.80;;;;;;4989283;28;20391;-66
2023/11/07 11:01:03;;;;;;;0.65;0.60;;;11.90;87.20;;;;;;4987756;28;20509;-65
2023/11/07 11:03:30;;;;;;;1.55;0.90;;;11.70;86.60;;;;;;4989943;28;20053;-65
2023/11/07 11:05:59;;;;;;;2.83;0.93;;;11.60;87.40;;;;;;4986938;28;20125;-66
2023/11/07 11:08:26;;;;;;;1.88;0.80;;;11.60;87.00;;;;;;4992738;28;20033;-65
2023/11/07 11:10:56;;;;;;;0.85;0.75;;;11.60;86.70;;;;;;4986191;28;20057;-66
2023/11/07 11:13:24;;;;;;;1.33;0.97;;;11.50;86.10;;;;;;4990505;28;20035;-66
2023/11/07 11:15:52;;;;;;;0.73;0.70;;;11.50;85.40;;;;;;4988397;28;20022;-64
2023/11/07 11:18:28;;;;;;;1.20;0.93;;;11.40;86.40;;;;;;4991622;28;20546;-65
2023/11/07 11:21:16;;;;;;;0.85;0.70;;;11.50;86.10;;;;;;4983373;28;20045;-65
2023/11/07 11:24:04;;;;;;;0.70;0.63;;;11.50;86.20;;;;;;4989321;28;20026;-67
2023/11/07 11:26:52;;;;;;;1.02;0.70;;;11.50;86.70;;;;;;4986061;28;20051;-66
2023/11/07 11:29:26;;;;;;;0.70;0.70;;;11.50;86.00;;;;;;4989661;28;20422;-64
2023/11/07 11:31:53;;;;;;;2.58;0.98;;;11.50;85.90;;;;;;4988091;28;20061;-64
2023/11/07 11:34:29;;;;;;;1.17;0.80;;;11.40;85.90;;;;;;4987388;28;20022;-65
2023/11/07 11:36:59;;;;;;;1.70;1.02;;;11.50;85.80;;;;;;4988260;28;20030;-66
2023/11/07 11:39:31;;;;;;;1.05;0.73;;;11.50;85.70;;;;;;4987109;28;20382;-65
2023/11/07 11:41:57;;;;;;;1.20;0.60;;;11.60;85.80;;;;;;4981879;28;20022;-65
2023/11/07 11:44:26;;;;;;;1.20;0.77;;;11.70;86.30;;;;;;4990821;28;20062;-69
2023/11/07 11:46:52;;;;;;;0.50;0.50;;;11.80;86.10;;;;;;4978783;28;20054;-65
2023/11/07 11:49:21;;;;;;;0.60;0.60;;;12.00;85.50;;;;;;4992967;28;20483;-65
2023/11/07 11:51:48;;;;;;;0.60;0.57;;;12.10;84.80;;;;;;4984318;28;20451;-65
2023/11/07 11:54:24;;;;;;;0.73;0.70;;;12.10;84.60;;;;;;4993112;28;20113;-64
2023/11/07 11:56:49;;;;;;;0.75;0.55;;;12.00;83.80;;;;;;4986233;28;20386;-66
2023/11/07 11:59:19;;;;;;;0.98;0.70;;;12.10;84.60;;;;;;4990651;28;20121;-66
2023/11/07 12:01:58;;;;;;;2.30;0.70;;;12.10;84.70;;;;;;4984007;28;20514;-66
2023/11/07 12:04:47;;;;;;;0.90;0.50;;;11.90;85.00;;;;;;4995285;28;20037;-65
2023/11/07 12:07:13;;;;;;;1.60;0.80;;;12.00;85.00;;;;;;4980829;28;20460;-67
2023/11/07 12:09:49;;;;;;;0.80;0.50;;;12.10;84.80;;;;;;4983938;28;20066;-65
2023/11/07 12:12:16;;;;;;;0.63;0.60;;;12.30;85.70;;;;;;4985840;28;20026;-68
2023/11/07 12:14:56;;;;;;;0.50;0.50;;;12.50;84.30;;;;;;4982105;28;20422;-67
2023/11/07 12:17:23;;;;;;;1.00;0.60;;;12.50;83.40;;;;;;4990762;28;20506;-65
2023/11/07 12:19:49;;;;;;;0.50;0.50;;;12.30;83.00;;;;;;4994783;28;20040;-65
2023/11/07 12:22:16;;;;;;;0.52;0.52;;;12.30;83.60;;;;;;4986968;28;20034;-65
2023/11/07 12:24:42;;;;;;;1.10;0.63;;;12.20;82.60;;;;;;4990845;28;20014;-65
2023/11/07 12:27:07;;;;;;;2.67;0.80;;;12.20;84.00;;;;;;4985358;28;20138;-65
2023/11/07 12:29:35;;;;;;;0.50;0.43;;;12.20;83.40;;;;;;4984961;28;20105;-65
2023/11/07 12:32:03;;;;;;;1.00;0.80;;;12.30;82.90;;;;;;4989210;28;20030;-65
2023/11/07 12:34:33;;;;;;;0.65;0.50;;;12.70;83.30;;;;;;4993219;28;20030;-65
2023/11/07 12:37:13;;;;;;;1.15;0.47;;;12.90;81.50;;;;;;4989021;28;20038;-65
2023/11/07 12:39:40;;;;;;;0.70;0.40;;;13.10;80.30;;;;;;4987948;28;20041;-65
2023/11/07 12:42:07;;;;;;;1.20;0.50;;;13.50;79.50;;;;;;4986318;28;20029;-66
2023/11/07 12:44:33;;;;;;;2.08;0.50;;;13.30;80.70;;;;;;4980586;28;20399;-65
2023/11/07 12:46:58;;;;;;;1.15;0.30;;;12.60;80.80;;;;;;4988239;28;20034;-66
2023/11/07 12:49:24;;;;;;;1.98;0.77;;;12.40;82.20;;;;;;4990456;28;20121;-66
2023/11/07 12:51:50;;;;;;;1.83;0.80;;;12.20;82.70;;;;;;4988167;28;20026;-65
2023/11/07 12:54:24;;;;;;;0.60;0.50;;;12.10;83.50;;;;;;4988603;28;20106;-65